createdAt,value
2023-03-08T00:01:51.463Z,97827.47
2023-03-08T00:04:21.237Z,97839.78
2023-03-08T00:06:51.043Z,97831.00
2023-03-08T00:09:20.624Z,97833.72
2023-03-08T00:11:50.165Z,97836.50
2023-03-08T00:14:25.370Z,97830.91
2023-03-08T00:16:54.915Z,97846.78
2023-03-08T00:19:24.505Z,97841.88
2023-03-08T00:21:54.084Z,97844.56
2023-03-08T00:24:23.676Z,97837.31
2023-03-08T00:26:53.234Z,97851.81
2023-03-08T00:29:25.561Z,97854.28
2023-03-08T00:31:55.308Z,97862.91
2023-03-08T00:34:25.253Z,97868.97
2023-03-08T00:36:54.835Z,97881.97
2023-03-08T00:39:24.416Z,97873.53
2023-03-08T00:41:54.006Z,97875.06
2023-03-08T00:44:27.007Z,97877.97
2023-03-08T00:46:56.565Z,97869.09
2023-03-08T00:49:26.203Z,97868.25
2023-03-08T00:51:55.770Z,97871.06
2023-03-08T00:54:25.402Z,97866.16
2023-03-08T00:56:55.109Z,97874.34
2023-03-08T00:59:27.273Z,97867.53
2023-03-08T01:01:57.468Z,97868.47
2023-03-08T01:04:27.360Z,97872.34
2023-03-08T01:06:56.996Z,97875.72
2023-03-08T01:09:26.660Z,97879.63
2023-03-08T01:11:56.743Z,97879.06
2023-03-08T01:14:30.063Z,97895.53
2023-03-08T01:16:59.690Z,97888.63
2023-03-08T01:19:29.285Z,97883.38
2023-03-08T01:21:58.849Z,97872.44
2023-03-08T01:24:28.423Z,97875.31
2023-03-08T01:27:01.015Z,97867.31
2023-03-08T01:29:33.165Z,97870.63
2023-03-08T01:32:02.907Z,97869.13
2023-03-08T01:34:32.509Z,97868.75
2023-03-08T01:37:02.163Z,97871.22
2023-03-08T01:39:31.710Z,97871.94
2023-03-08T01:42:01.540Z,97856.00
2023-03-08T01:44:52.441Z,97866.31
2023-03-08T01:47:24.303Z,97859.88
2023-03-08T01:50:26.175Z,97863.94
2023-03-08T01:52:58.272Z,97860.25
2023-03-08T01:55:28.030Z,97855.56
2023-03-08T01:57:58.820Z,97860.34
2023-03-08T02:00:31.094Z,97856.94
2023-03-08T02:03:03.648Z,97858.72
2023-03-08T02:05:33.706Z,97854.97
2023-03-08T02:08:15.426Z,97854.50
2023-03-08T02:10:47.099Z,97844.91
2023-03-08T02:13:17.725Z,97841.28
2023-03-08T02:15:51.366Z,97841.78
2023-03-08T02:18:23.374Z,97850.53
2023-03-08T02:20:52.956Z,97839.19
2023-03-08T02:23:28.944Z,97846.44
2023-03-08T02:26:01.898Z,97851.69
2023-03-08T02:28:33.377Z,97850.75
2023-03-08T02:31:03.653Z,97846.44
2023-03-08T02:33:36.602Z,97853.56
2023-03-08T02:36:08.207Z,97854.28
2023-03-08T02:38:40.435Z,97849.09
2023-03-08T02:41:11.364Z,97845.00
2023-03-08T02:43:40.952Z,97837.38
2023-03-08T02:46:13.367Z,97844.97
2023-03-08T02:48:42.975Z,97833.56
2023-03-08T02:51:12.651Z,97828.72
2023-03-08T02:57:10.539Z,97822.31
2023-03-08T02:59:41.426Z,97819.16
2023-03-08T03:02:11.151Z,97824.50
2023-03-08T03:04:40.788Z,97826.31
2023-03-08T03:07:10.637Z,97827.72
2023-03-08T03:09:41.210Z,97824.53
2023-03-08T03:12:13.468Z,97822.06
2023-03-08T03:14:44.990Z,97814.22
2023-03-08T03:17:14.610Z,97822.19
2023-03-08T04:05:56.194Z,97817.47
2023-03-08T04:08:25.885Z,97819.31
2023-03-08T04:10:55.608Z,97811.94
2023-03-08T04:13:25.724Z,97802.13
2023-03-08T04:15:55.818Z,97809.13
2023-03-08T04:18:25.808Z,97808.44
2023-03-08T04:20:58.062Z,97817.09
2023-03-08T04:23:27.748Z,97820.69
2023-03-08T04:25:57.322Z,97812.75
2023-03-08T04:28:26.964Z,97822.25
2023-03-08T04:30:57.201Z,97823.84
2023-03-08T04:33:26.995Z,97823.13
2023-03-08T04:35:59.444Z,97825.81
2023-03-08T04:38:30.156Z,97832.88
2023-03-08T04:41:05.646Z,97828.41
2023-03-08T04:43:49.647Z,97827.31
2023-03-08T04:46:22.877Z,97826.59
2023-03-08T04:48:52.964Z,97834.97
2023-03-08T04:51:27.307Z,97831.09
2023-03-08T04:53:59.457Z,97833.28
2023-03-08T04:56:29.482Z,97834.50
2023-03-08T04:58:59.116Z,97831.09
2023-03-08T05:01:30.014Z,97828.16
2023-03-08T05:04:00.666Z,97840.69
2023-03-08T05:06:39.762Z,97830.16
2023-03-08T05:09:11.222Z,97836.63
2023-03-08T05:11:43.589Z,97827.13
2023-03-08T05:14:13.666Z,97819.19
2023-03-08T05:16:43.399Z,97814.72
2023-03-08T05:19:13.732Z,97820.56
2023-03-08T05:21:53.041Z,97822.31
2023-03-08T05:24:23.028Z,97826.78
2023-03-08T05:26:52.935Z,97826.47
2023-03-08T05:29:23.560Z,97820.47
2023-03-08T05:31:53.604Z,97814.88
2023-03-08T05:34:24.472Z,97809.81
2023-03-08T05:36:56.690Z,97803.84
2023-03-08T05:39:26.371Z,97804.19
2023-03-08T05:42:02.531Z,97810.53
2023-03-08T05:44:39.498Z,97799.38
2023-03-08T05:47:10.576Z,97795.78
2023-03-08T05:49:40.314Z,97791.22
2023-03-08T05:52:13.433Z,97797.19
2023-03-08T05:54:43.875Z,97801.88
2023-03-08T05:57:18.172Z,97788.84
2023-03-08T05:59:48.592Z,97795.84
2023-03-08T06:02:21.196Z,97794.31
2023-03-08T06:04:53.372Z,97802.28
2023-03-08T06:07:28.196Z,97794.69
2023-03-08T06:10:05.209Z,97797.53
2023-03-08T06:12:34.853Z,97798.72
2023-03-08T06:15:09.667Z,97813.16
2023-03-08T06:17:40.613Z,97803.94
2023-03-08T06:20:12.115Z,97800.38
2023-03-08T06:22:47.666Z,97807.19
2023-03-08T06:25:18.796Z,97807.06
2023-03-08T06:27:49.742Z,97804.22
2023-03-08T06:30:38.157Z,97801.44
2023-03-08T06:33:08.469Z,97802.75
2023-03-08T06:35:38.580Z,97812.06
2023-03-08T06:38:11.780Z,97814.41
2023-03-08T06:40:41.620Z,97810.78
2023-03-08T06:43:11.240Z,97814.66
2023-03-08T06:45:41.081Z,97810.75
2023-03-08T06:48:12.079Z,97801.50
2023-03-08T06:50:42.701Z,97802.47
2023-03-08T06:53:16.002Z,97800.97
2023-03-08T06:55:56.458Z,97798.22
2023-03-08T06:58:26.058Z,97792.38
2023-03-08T07:00:59.797Z,97791.81
2023-03-08T07:03:29.976Z,97787.22
2023-03-08T07:06:01.605Z,97786.59
2023-03-08T07:08:33.957Z,97786.25
2023-03-08T07:11:03.536Z,97786.03
2023-03-08T07:13:33.092Z,97787.09
2023-03-08T07:16:02.716Z,97787.22
2023-03-08T07:18:32.274Z,97786.31
2023-03-08T07:21:01.816Z,97795.09
2023-03-08T07:23:34.224Z,97789.19
2023-03-08T07:26:07.264Z,97794.97
2023-03-08T07:28:36.909Z,97796.69
2023-03-08T07:31:06.888Z,97799.34
2023-03-08T07:33:36.578Z,97793.66
2023-03-08T07:36:06.810Z,97784.25
2023-03-08T07:38:38.961Z,97775.09
2023-03-08T07:41:08.798Z,97768.16
2023-03-08T07:43:38.566Z,97767.06
2023-03-08T07:46:15.870Z,97764.28
2023-03-08T07:48:45.450Z,97758.22
2023-03-08T07:51:15.223Z,97756.97
2023-03-08T07:53:47.389Z,97763.44
2023-03-08T07:56:17.060Z,97757.25
2023-03-08T07:58:46.765Z,97758.06
2023-03-08T08:01:17.099Z,97750.81
2023-03-08T08:03:47.358Z,97751.38
2023-03-08T08:06:17.243Z,97753.84
2023-03-08T08:08:49.399Z,97759.84
2023-03-08T08:11:20.231Z,97751.53
2023-03-08T08:13:49.850Z,97754.44
2023-03-08T08:16:20.279Z,97746.31
2023-03-08T08:18:49.912Z,97741.06
2023-03-08T08:21:19.516Z,97733.63
2023-03-08T08:23:51.760Z,97727.75
2023-03-08T08:26:22.764Z,97724.09
2023-03-08T08:28:54.963Z,97724.19
2023-03-08T08:31:26.855Z,97732.75
2023-03-08T08:33:56.515Z,97723.44
2023-03-08T08:36:26.861Z,97720.16
2023-03-08T08:38:59.032Z,97720.84
2023-03-08T08:41:29.788Z,97707.97
2023-03-08T08:44:00.244Z,97710.22
2023-03-08T08:46:31.142Z,97710.94
2023-03-08T08:49:01.344Z,97703.78
2023-03-08T08:51:31.156Z,97707.81
2023-03-08T08:54:03.392Z,97703.16
2023-03-08T08:56:33.092Z,97701.22
2023-03-08T08:59:04.670Z,97703.97
2023-03-08T09:01:37.081Z,97695.50
2023-03-08T09:04:06.723Z,97696.78
2023-03-08T09:06:36.437Z,97692.63
2023-03-08T09:09:09.446Z,97697.78
2023-03-08T09:11:53.442Z,97702.06
2023-03-08T09:14:26.882Z,97704.69
2023-03-08T09:16:56.569Z,97694.41
2023-03-08T09:19:26.268Z,97700.59
2023-03-08T09:21:56.001Z,97694.91
2023-03-08T09:24:28.130Z,97697.00
2023-03-08T09:26:57.691Z,97695.38
2023-03-08T09:29:27.248Z,97688.78
2023-03-08T09:31:58.690Z,97686.47
2023-03-08T09:34:28.977Z,97685.09
2023-03-08T09:36:58.564Z,97683.34
2023-03-08T09:39:30.862Z,97673.41
2023-03-08T09:42:02.398Z,97676.09
2023-03-08T09:45:01.966Z,97669.03
2023-03-08T09:47:40.047Z,97665.72
2023-03-08T09:50:28.046Z,97664.13
2023-03-08T09:53:01.971Z,97659.63
2023-03-08T09:55:36.120Z,97658.09
2023-03-08T09:58:14.201Z,97654.88
2023-03-08T10:00:43.835Z,97654.81
2023-03-08T10:03:35.462Z,97646.03
2023-03-08T10:06:15.492Z,97644.03
2023-03-08T10:08:52.361Z,97640.03
2023-03-08T10:11:34.320Z,97631.09
2023-03-08T10:14:13.613Z,97623.53
2023-03-08T10:16:47.017Z,97621.22
2023-03-08T10:19:20.303Z,97618.75
2023-03-08T10:21:50.877Z,97613.88
2023-03-08T10:24:27.185Z,97617.06
2023-03-08T10:27:09.545Z,97604.59
2023-03-08T10:29:39.133Z,97607.88
2023-03-08T10:32:09.340Z,97605.97
2023-03-08T10:34:39.062Z,97598.44
2023-03-08T10:37:09.987Z,97584.16
2023-03-08T10:39:40.351Z,97587.53
2023-03-08T10:42:18.783Z,97575.53
2023-03-08T10:44:57.207Z,97573.44
2023-03-08T10:47:29.894Z,97557.94
2023-03-08T10:50:08.432Z,97546.63
2023-03-08T10:52:38.307Z,97544.25
2023-03-08T10:55:13.934Z,97542.56
2023-03-08T10:57:54.029Z,97543.84
2023-03-08T11:00:43.929Z,97542.28
2023-03-08T11:03:17.400Z,97542.16
2023-03-08T11:05:59.110Z,97537.56
2023-03-08T11:08:31.981Z,97538.72
2023-03-08T11:11:10.748Z,97525.34
2023-03-08T11:13:46.575Z,97526.28
2023-03-08T11:16:31.137Z,97533.72
2023-03-08T11:19:09.782Z,97528.66
2023-03-08T11:21:50.706Z,97522.81
2023-03-08T11:24:32.960Z,97523.88
2023-03-08T11:27:19.622Z,97535.41
2023-03-08T11:30:05.981Z,97529.09
2023-03-08T11:32:50.352Z,97529.66
2023-03-08T11:35:27.406Z,97523.28
2023-03-08T11:38:02.487Z,97518.00
2023-03-08T11:40:40.755Z,97520.44
2023-03-08T11:43:26.310Z,97519.94
2023-03-08T11:46:04.492Z,97521.59
2023-03-08T11:49:03.807Z,97525.78
2023-03-08T11:51:42.917Z,97522.09
2023-03-08T11:54:20.148Z,97528.22
2023-03-08T11:56:54.286Z,97524.13
2023-03-08T11:59:32.511Z,97529.81
2023-03-08T12:02:14.333Z,97526.00
2023-03-08T12:04:48.699Z,97541.63
2023-03-08T12:07:25.305Z,97541.19
2023-03-08T12:10:02.172Z,97537.03
2023-03-08T12:12:36.254Z,97540.81
2023-03-08T12:15:16.995Z,97542.16
2023-03-08T12:17:55.650Z,97539.84
2023-03-08T12:20:25.689Z,97531.16
2023-03-08T12:23:03.273Z,97545.72
2023-03-08T12:25:35.812Z,97544.22
2023-03-08T12:28:09.706Z,97546.53
2023-03-08T12:30:50.432Z,97541.63
2023-03-08T12:33:23.632Z,97547.56
2023-03-08T12:35:55.814Z,97528.16
2023-03-08T12:38:34.782Z,97543.13
2023-03-08T12:41:07.199Z,97530.72
2023-03-08T12:43:38.784Z,97527.56
2023-03-08T12:46:10.775Z,97543.28
2023-03-08T12:48:51.968Z,97538.78
2023-03-08T12:51:26.975Z,97545.22
2023-03-08T12:54:03.319Z,97523.00
2023-03-08T12:56:35.855Z,97521.88
2023-03-08T12:59:26.732Z,97498.88
2023-03-08T13:02:04.405Z,97504.41
2023-03-08T13:04:41.763Z,97514.75
2023-03-08T13:07:24.977Z,97515.41
2023-03-08T13:10:00.986Z,97511.06
2023-03-08T13:12:42.839Z,97502.03
2023-03-08T13:15:26.024Z,97484.66
2023-03-08T13:18:08.519Z,97483.56
2023-03-08T13:21:00.915Z,97476.38
2023-03-08T13:23:36.347Z,97483.50
2023-03-08T13:26:19.141Z,97494.66
2023-03-08T13:28:49.510Z,97498.56
2023-03-08T13:31:22.245Z,97504.47
2023-03-08T13:33:54.912Z,97494.66
2023-03-08T13:36:29.017Z,97506.00
2023-03-08T13:39:01.147Z,97506.56
2023-03-08T13:41:38.481Z,97506.13
2023-03-08T13:44:10.409Z,97510.28
2023-03-08T13:46:42.995Z,97510.16
2023-03-08T13:49:19.022Z,97523.97
2023-03-08T13:51:54.952Z,97502.31
2023-03-08T13:54:29.931Z,97502.19
2023-03-08T13:57:00.494Z,97495.91
2023-03-08T13:59:30.226Z,97496.59
2023-03-08T14:02:00.360Z,97490.47
2023-03-08T14:04:31.756Z,97481.81
2023-03-08T14:07:07.285Z,97470.13
2023-03-08T14:09:36.922Z,97467.78
2023-03-08T14:12:09.970Z,97473.28
2023-03-08T14:14:43.342Z,97471.41
2023-03-08T14:17:22.418Z,97470.53
2023-03-08T14:19:56.902Z,97473.97
2023-03-08T14:22:39.622Z,97470.06
2023-03-08T14:25:24.752Z,97459.03
2023-03-08T14:27:55.061Z,97452.06
2023-03-08T14:30:26.834Z,97447.06
2023-03-08T14:33:07.168Z,97454.63
2023-03-08T14:35:39.803Z,97452.69
2023-03-08T14:38:25.949Z,97446.63
2023-03-08T14:40:55.662Z,97450.63
2023-03-08T14:43:27.565Z,97451.34
2023-03-08T14:45:59.048Z,97439.88
2023-03-08T14:48:32.786Z,97432.66
2023-03-08T14:51:04.579Z,97416.78
2023-03-08T14:53:38.904Z,97423.94
2023-03-08T14:56:10.014Z,97419.09
2023-03-08T14:58:42.681Z,97413.97
2023-03-08T15:01:12.532Z,97416.72
2023-03-08T15:03:42.142Z,97427.72
2023-03-08T15:06:18.260Z,97418.16
2023-03-08T15:08:51.526Z,97416.22
2023-03-08T15:11:22.002Z,97406.44
2023-03-08T15:13:52.223Z,97415.78
2023-03-08T15:16:21.932Z,97410.34
2023-03-08T15:18:51.580Z,97408.31
2023-03-08T15:21:25.120Z,97401.09
2023-03-08T15:23:57.703Z,97390.00
2023-03-08T15:26:31.538Z,97392.28
2023-03-08T15:29:03.424Z,97390.78
2023-03-08T15:31:33.592Z,97377.13
2023-03-08T15:34:03.855Z,97376.66
2023-03-08T15:36:35.777Z,97380.09
2023-03-08T15:39:08.267Z,97380.47
2023-03-08T15:41:38.154Z,97391.06
2023-03-08T15:44:07.725Z,97384.09
2023-03-08T15:46:38.020Z,97396.94
2023-03-08T15:49:08.578Z,97389.75
2023-03-08T15:51:39.604Z,97391.16
2023-03-08T15:54:13.934Z,97385.38
2023-03-08T15:56:43.668Z,97386.78
2023-03-08T15:59:14.292Z,97379.34
2023-03-08T16:01:43.912Z,97377.66
2023-03-08T16:04:13.804Z,97363.03
2023-03-08T16:06:44.259Z,97374.19
2023-03-08T16:09:16.390Z,97365.94
2023-03-08T16:11:48.127Z,97360.78
2023-03-08T16:14:18.791Z,97347.78
2023-03-08T16:16:48.569Z,97349.78
2023-03-08T16:19:18.258Z,97342.19
2023-03-08T16:21:48.128Z,97345.91
2023-03-08T16:24:20.307Z,97340.13
2023-03-08T16:26:50.111Z,97348.09
2023-03-08T16:29:19.685Z,97346.88
2023-03-08T16:31:49.390Z,97351.03
2023-03-08T16:34:19.798Z,97356.88
2023-03-08T16:36:49.336Z,97362.69
2023-03-08T16:39:21.608Z,97366.56
2023-03-08T16:41:51.689Z,97380.09
2023-03-08T16:44:23.083Z,97387.75
2023-03-08T16:46:53.162Z,97387.69
2023-03-08T16:49:28.410Z,97386.97
2023-03-08T16:51:58.783Z,97407.63
2023-03-08T16:54:31.103Z,97389.53
2023-03-08T16:57:13.044Z,97385.47
2023-03-08T16:59:47.702Z,97390.25
2023-03-08T17:02:18.969Z,97400.25
2023-03-08T17:04:49.627Z,97421.09
2023-03-08T17:07:19.675Z,97422.72
2023-03-08T17:09:52.189Z,97417.00
2023-03-08T17:12:21.784Z,97409.78
2023-03-08T17:14:51.407Z,97400.97
2023-03-08T17:17:21.105Z,97409.25
2023-03-08T17:19:54.124Z,97398.69
2023-03-08T17:22:23.806Z,97415.03
2023-03-08T17:24:56.126Z,97392.66
2023-03-08T17:27:25.703Z,97389.97
2023-03-08T17:29:55.371Z,97398.44
2023-03-08T17:32:25.033Z,97406.03
2023-03-08T17:34:54.749Z,97408.22
2023-03-08T17:37:24.414Z,97419.97
2023-03-08T17:39:56.774Z,97430.56
2023-03-08T17:42:26.528Z,97426.75
2023-03-08T17:44:56.161Z,97437.97
2023-03-08T17:47:25.836Z,97440.84
2023-03-08T17:49:55.418Z,97438.41
2023-03-08T17:52:25.040Z,97456.50
2023-03-08T17:54:57.189Z,97458.34
2023-03-08T17:57:27.339Z,97461.72
2023-03-08T17:59:57.278Z,97460.22
2023-03-08T18:02:27.073Z,97444.06
2023-03-08T18:04:56.724Z,97454.88
2023-03-08T18:07:27.831Z,97453.47
2023-03-08T18:10:01.890Z,97455.53
2023-03-08T18:12:32.159Z,97445.97
2023-03-08T18:15:02.015Z,97436.59
2023-03-08T18:17:34.196Z,97442.75
2023-03-08T18:20:05.601Z,97440.78
2023-03-08T18:22:35.391Z,97449.97
2023-03-08T18:25:08.362Z,97444.66
2023-03-08T18:27:39.578Z,97440.88
2023-03-08T18:30:11.930Z,97434.63
2023-03-08T18:32:42.158Z,97435.53
2023-03-08T18:35:13.445Z,97436.44
2023-03-08T18:37:43.106Z,97434.66
2023-03-08T18:40:15.970Z,97434.50
2023-03-08T18:42:46.047Z,97432.84
2023-03-08T18:45:17.156Z,97434.63
2023-03-08T18:47:46.967Z,97442.88
2023-03-08T18:50:16.885Z,97445.59
2023-03-08T18:52:46.487Z,97450.97
2023-03-08T18:55:18.728Z,97447.03
2023-03-08T18:57:48.306Z,97453.41
2023-03-08T19:00:19.483Z,97449.97
2023-03-08T19:02:49.040Z,97457.44
2023-03-08T19:05:19.077Z,97445.72
2023-03-08T19:07:48.638Z,97438.59
2023-03-08T19:10:21.082Z,97434.16
2023-03-08T19:12:50.671Z,97436.97
2023-03-08T19:15:20.590Z,97443.22
2023-03-08T19:17:50.172Z,97441.31
2023-03-08T19:20:20.541Z,97441.41
2023-03-08T19:22:50.125Z,97434.63
2023-03-08T19:25:22.307Z,97423.66
2023-03-08T19:27:51.882Z,97428.47
2023-03-08T19:30:23.302Z,97448.00
2023-03-08T19:32:52.862Z,97436.97
2023-03-08T19:35:23.113Z,97443.78
2023-03-08T19:37:53.519Z,97448.81
2023-03-08T19:40:25.752Z,97441.31
2023-03-08T19:42:55.506Z,97443.13
2023-03-08T19:45:25.394Z,97446.66
2023-03-08T19:47:55.864Z,97442.13
2023-03-08T19:50:25.773Z,97435.94
2023-03-08T19:52:55.609Z,97440.44
2023-03-08T19:55:28.278Z,97427.00
2023-03-08T19:57:57.896Z,97446.78
2023-03-08T20:00:28.857Z,97443.44
2023-03-08T20:02:59.547Z,97439.69
2023-03-08T20:05:29.463Z,97442.81
2023-03-08T20:07:59.311Z,97452.59
2023-03-08T20:10:31.760Z,97445.25
2023-03-08T20:13:01.333Z,97441.19
2023-03-08T20:15:31.101Z,97435.13
2023-03-08T20:18:01.104Z,97432.59
2023-03-08T20:20:30.721Z,97441.66
2023-03-08T20:23:00.741Z,97437.09
2023-03-08T20:25:34.792Z,97446.88
2023-03-08T20:28:04.914Z,97446.78
2023-03-08T20:30:34.478Z,97440.84
2023-03-08T20:33:04.594Z,97447.53
2023-03-08T20:35:34.436Z,97463.16
2023-03-08T20:38:04.111Z,97456.06
2023-03-08T20:40:39.240Z,97445.09
2023-03-08T20:43:11.027Z,97458.78
2023-03-08T20:45:42.326Z,97451.09
2023-03-08T20:48:12.057Z,97460.22
2023-03-08T20:50:41.818Z,97464.63
2023-03-08T20:53:11.606Z,97469.88
2023-03-08T20:55:44.036Z,97473.66
2023-03-08T20:58:13.809Z,97468.97
2023-03-08T21:00:43.661Z,97461.38
2023-03-08T21:03:13.447Z,97452.75
2023-03-08T21:05:43.056Z,97458.94
2023-03-08T21:08:12.767Z,97447.03
2023-03-08T21:10:44.906Z,97455.25
2023-03-08T21:13:14.662Z,97455.91
2023-03-08T21:15:44.355Z,97453.38
2023-03-08T21:18:13.972Z,97458.41
2023-03-08T21:20:44.949Z,97454.19
2023-03-08T21:23:16.523Z,97448.19
2023-03-08T21:25:48.670Z,97442.31
2023-03-08T21:28:18.530Z,97455.19
2023-03-08T21:30:48.850Z,97457.44
2023-03-08T21:33:18.821Z,97451.50
2023-03-08T21:35:48.401Z,97449.88
2023-03-08T21:38:17.969Z,97452.41
2023-03-08T21:40:50.107Z,97448.84
2023-03-08T21:43:19.675Z,97449.81
2023-03-08T21:45:49.269Z,97437.00
2023-03-08T21:48:18.852Z,97448.34
2023-03-08T21:50:48.409Z,97445.25
2023-03-08T21:53:17.982Z,97442.47
2023-03-08T21:55:50.130Z,97428.94
2023-03-08T21:58:19.724Z,97438.72
2023-03-08T22:00:49.332Z,97427.41
2023-03-08T22:03:19.258Z,97421.78
2023-03-08T22:05:48.908Z,97416.66
2023-03-08T22:08:18.453Z,97414.97
2023-03-08T22:10:50.721Z,97421.22
2023-03-08T22:13:20.284Z,97415.94
2023-03-08T22:15:52.502Z,97405.50
2023-03-08T22:18:25.861Z,97413.34
2023-03-08T22:20:56.254Z,97407.69
2023-03-08T22:23:26.513Z,97403.88
2023-03-08T22:25:58.647Z,97391.59
2023-03-08T22:28:28.265Z,97391.06
2023-03-08T22:30:57.829Z,97400.44
2023-03-08T22:33:27.356Z,97384.59
2023-03-08T22:35:56.980Z,97391.00
2023-03-08T22:38:26.548Z,97380.91
2023-03-08T22:40:58.690Z,97380.25
2023-03-08T22:43:28.602Z,97371.00
2023-03-08T22:45:58.220Z,97382.44
2023-03-08T22:48:27.843Z,97388.25
2023-03-08T22:51:10.297Z,97387.91
2023-03-08T22:53:40.581Z,97383.31
2023-03-08T22:56:21.659Z,97382.69
2023-03-08T22:58:51.650Z,97386.44
2023-03-08T23:01:22.977Z,97385.06
2023-03-08T23:03:53.692Z,97386.75
2023-03-08T23:06:23.325Z,97386.88
2023-03-08T23:08:53.280Z,97383.66
2023-03-08T23:11:25.822Z,97384.13
2023-03-08T23:13:55.760Z,97387.22
2023-03-08T23:16:25.402Z,97388.22
2023-03-08T23:18:56.516Z,97384.78
2023-03-08T23:21:29.370Z,97385.72
2023-03-08T23:23:59.522Z,97389.19
2023-03-08T23:26:32.805Z,97380.41
2023-03-08T23:29:04.916Z,97376.31
2023-03-08T23:31:36.011Z,97380.50
2023-03-08T23:34:07.492Z,97383.09
2023-03-08T23:36:37.100Z,97378.72
2023-03-08T23:39:06.773Z,97378.25
2023-03-08T23:41:38.936Z,97368.75
2023-03-08T23:44:08.530Z,97362.63
2023-03-08T23:46:38.345Z,97349.28
2023-03-08T23:49:07.997Z,97364.41
2023-03-08T23:51:37.580Z,97359.41
2023-03-08T23:54:07.327Z,97373.47
2023-03-08T23:56:41.397Z,97372.84
2023-03-08T23:59:17.545Z,97374.72
